sensor_id;sensor_type;location;lat;lon;timestamp;P1;durP1;ratioP1;P2;durP2;ratioP2
8104;SDS011;4095;48.942;9.104;2022-12-07T00:01:42;9.47;;;8.57;;
8104;SDS011;4095;48.942;9.104;2022-12-07T00:04:14;9.73;;;8.50;;
8104;SDS011;4095;48.942;9.104;2022-12-07T00:06:41;10.30;;;9.20;;
8104;SDS011;4095;48.942;9.104;2022-12-07T00:09:10;11.13;;;8.60;;
8104;SDS011;4095;48.942;9.104;2022-12-07T00:11:41;10.17;;;8.87;;
8104;SDS011;4095;48.942;9.104;2022-12-07T00:14:09;11.40;;;8.97;;
8104;SDS011;4095;48.942;9.104;2022-12-07T00:16:36;9.90;;;8.60;;
8104;SDS011;4095;48.942;9.104;2022-12-07T00:19:02;9.83;;;8.73;;
8104;SDS011;4095;48.942;9.104;2022-12-07T00:21:29;9.57;;;8.03;;
8104;SDS011;4095;48.942;9.104;2022-12-07T00:23:57;10.47;;;8.50;;
8104;SDS011;4095;48.942;9.104;2022-12-07T00:26:24;10.33;;;8.37;;
8104;SDS011;4095;48.942;9.104;2022-12-07T00:28:55;9.73;;;8.43;;
8104;SDS011;4095;48.942;9.104;2022-12-07T00:31:31;10.47;;;9.40;;
8104;SDS011;4095;48.942;9.104;2022-12-07T00:33:59;10.27;;;9.23;;
8104;SDS011;4095;48.942;9.104;2022-12-07T00:36:25;10.43;;;9.27;;
8104;SDS011;4095;48.942;9.104;2022-12-07T00:38:52;10.27;;;9.17;;
8104;SDS011;4095;48.942;9.104;2022-12-07T00:41:22;11.50;;;9.37;;
8104;SDS011;4095;48.942;9.104;2022-12-07T00:43:49;10.63;;;9.63;;
8104;SDS011;4095;48.942;9.104;2022-12-07T00:46:16;11.17;;;9.77;;
8104;SDS011;4095;48.942;9.104;2022-12-07T00:48:42;10.43;;;9.30;;
8104;SDS011;4095;48.942;9.104;2022-12-07T00:51:09;10.27;;;8.90;;
8104;SDS011;4095;48.942;9.104;2022-12-07T00:53:37;9.63;;;8.47;;
8104;SDS011;4095;48.942;9.104;2022-12-07T00:56:07;10.90;;;8.97;;
8104;SDS011;4095;48.942;9.104;2022-12-07T00:58:43;9.13;;;8.23;;
8104;SDS011;4095;48.942;9.104;2022-12-07T01:01:09;9.13;;;8.20;;
8104;SDS011;4095;48.942;9.104;2022-12-07T01:03:35;9.37;;;8.37;;
8104;SDS011;4095;48.942;9.104;2022-12-07T01:06:03;10.63;;;8.60;;
8104;SDS011;4095;48.942;9.104;2022-12-07T01:08:29;9.40;;;8.50;;
8104;SDS011;4095;48.942;9.104;2022-12-07T01:11:02;9.60;;;8.60;;
8104;SDS011;4095;48.942;9.104;2022-12-07T01:13:30;11.60;;;8.97;;
8104;SDS011;4095;48.942;9.104;2022-12-07T01:15:57;9.63;;;8.63;;
8104;SDS011;4095;48.942;9.104;2022-12-07T01:18:27;10.37;;;8.63;;
8104;SDS011;4095;48.942;9.104;2022-12-07T01:21:01;9.50;;;8.30;;
8104;SDS011;4095;48.942;9.104;2022-12-07T01:23:46;11.03;;;8.90;;
8104;SDS011;4095;48.942;9.104;2022-12-07T01:26:13;10.47;;;8.63;;
8104;SDS011;4095;48.942;9.104;2022-12-07T01:28:40;9.23;;;8.23;;
8104;SDS011;4095;48.942;9.104;2022-12-07T01:31:07;9.03;;;8.00;;
8104;SDS011;4095;48.942;9.104;2022-12-07T01:33:36;9.77;;;8.77;;
8104;SDS011;4095;48.942;9.104;2022-12-07T01:36:04;9.40;;;8.47;;
8104;SDS011;4095;48.942;9.104;2022-12-07T01:38:31;9.97;;;8.57;;
8104;SDS011;4095;48.942;9.104;2022-12-07T01:40:57;10.73;;;8.97;;
8104;SDS011;4095;48.942;9.104;2022-12-07T01:43:24;10.20;;;9.13;;
8104;SDS011;4095;48.942;9.104;2022-12-07T01:45:51;11.90;;;9.50;;
8104;SDS011;4095;48.942;9.104;2022-12-07T01:48:18;10.77;;;8.90;;
8104;SDS011;4095;48.942;9.104;2022-12-07T01:50:50;10.27;;;9.23;;
8104;SDS011;4095;48.942;9.104;2022-12-07T01:53:19;11.00;;;9.40;;
8104;SDS011;4095;48.942;9.104;2022-12-07T01:55:49;10.30;;;9.20;;
8104;SDS011;4095;48.942;9.104;2022-12-07T01:58:18;10.13;;;9.10;;
8104;SDS011;4095;48.942;9.104;2022-12-07T02:00:44;10.77;;;9.33;;
8104;SDS011;4095;48.942;9.104;2022-12-07T02:03:22;11.40;;;8.97;;
8104;SDS011;4095;48.942;9.104;2022-12-07T02:05:54;10.03;;;8.90;;
8104;SDS011;4095;48.942;9.104;2022-12-07T02:08:20;9.97;;;8.97;;
8104;SDS011;4095;48.942;9.104;2022-12-07T02:10:46;9.30;;;8.30;;
8104;SDS011;4095;48.942;9.104;2022-12-07T02:13:33;9.93;;;8.53;;
8104;SDS011;4095;48.942;9.104;2022-12-07T02:43:28;10.77;;;9.23;;
8104;SDS011;4095;48.942;9.104;2022-12-07T02:45:57;10.57;;;9.47;;
8104;SDS011;4095;48.942;9.104;2022-12-07T02:48:27;10.90;;;9.63;;
8104;SDS011;4095;48.942;9.104;2022-12-07T02:50:54;10.70;;;9.60;;
8104;SDS011;4095;48.942;9.104;2022-12-07T02:53:30;12.00;;;9.47;;
8104;SDS011;4095;48.942;9.104;2022-12-07T02:56:21;11.80;;;9.47;;
8104;SDS011;4095;48.942;9.104;2022-12-07T03:13:35;11.17;;;9.97;;
8104;SDS011;4095;48.942;9.104;2022-12-07T03:16:20;11.47;;;9.63;;
8104;SDS011;4095;48.942;9.104;2022-12-07T03:18:56;10.60;;;9.47;;
8104;SDS011;4095;48.942;9.104;2022-12-07T03:21:25;10.70;;;9.53;;
8104;SDS011;4095;48.942;9.104;2022-12-07T03:24:19;12.00;;;9.17;;
8104;SDS011;4095;48.942;9.104;2022-12-07T03:26:50;9.37;;;8.37;;
8104;SDS011;4095;48.942;9.104;2022-12-07T03:29:24;10.77;;;9.67;;
8104;SDS011;4095;48.942;9.104;2022-12-07T03:34:49;9.80;;;8.73;;
8104;SDS011;4095;48.942;9.104;2022-12-07T03:37:36;10.40;;;8.63;;
8104;SDS011;4095;48.942;9.104;2022-12-07T03:40:07;9.43;;;8.43;;
8104;SDS011;4095;48.942;9.104;2022-12-07T03:42:39;11.03;;;8.97;;
8104;SDS011;4095;48.942;9.104;2022-12-07T03:45:05;11.30;;;9.40;;
8104;SDS011;4095;48.942;9.104;2022-12-07T03:50:35;11.07;;;8.87;;
8104;SDS011;4095;48.942;9.104;2022-12-07T03:53:11;11.13;;;9.37;;
8104;SDS011;4095;48.942;9.104;2022-12-07T03:55:49;9.97;;;8.90;;
8104;SDS011;4095;48.942;9.104;2022-12-07T03:58:16;9.70;;;8.70;;
8104;SDS011;4095;48.942;9.104;2022-12-07T04:00:46;10.87;;;9.23;;
8104;SDS011;4095;48.942;9.104;2022-12-07T04:03:13;10.20;;;9.07;;
8104;SDS011;4095;48.942;9.104;2022-12-07T04:05:39;9.93;;;8.90;;
8104;SDS011;4095;48.942;9.104;2022-12-07T04:08:05;10.10;;;9.00;;
8104;SDS011;4095;48.942;9.104;2022-12-07T04:10:30;10.67;;;9.20;;
8104;SDS011;4095;48.942;9.104;2022-12-07T04:12:56;11.47;;;9.13;;
8104;SDS011;4095;48.942;9.104;2022-12-07T04:15:21;9.53;;;8.33;;
8104;SDS011;4095;48.942;9.104;2022-12-07T04:17:47;11.80;;;8.80;;
8104;SDS011;4095;48.942;9.104;2022-12-07T04:20:13;10.47;;;9.37;;
8104;SDS011;4095;48.942;9.104;2022-12-07T04:22:38;10.27;;;9.27;;
8104;SDS011;4095;48.942;9.104;2022-12-07T04:25:04;11.30;;;9.37;;
8104;SDS011;4095;48.942;9.104;2022-12-07T04:27:30;10.27;;;8.90;;
8104;SDS011;4095;48.942;9.104;2022-12-07T04:29:56;11.57;;;9.90;;
8104;SDS011;4095;48.942;9.104;2022-12-07T04:32:22;11.23;;;9.03;;
8104;SDS011;4095;48.942;9.104;2022-12-07T04:34:48;10.53;;;9.43;;
8104;SDS011;4095;48.942;9.104;2022-12-07T04:37:13;10.67;;;9.57;;
8104;SDS011;4095;48.942;9.104;2022-12-07T04:39:39;10.60;;;9.30;;
8104;SDS011;4095;48.942;9.104;2022-12-07T04:42:04;11.33;;;9.47;;
8104;SDS011;4095;48.942;9.104;2022-12-07T04:44:30;10.60;;;9.50;;
8104;SDS011;4095;48.942;9.104;2022-12-07T04:46:56;11.67;;;9.87;;
8104;SDS011;4095;48.942;9.104;2022-12-07T04:49:22;11.53;;;9.60;;
8104;SDS011;4095;48.942;9.104;2022-12-07T04:51:48;12.03;;;10.03;;
8104;SDS011;4095;48.942;9.104;2022-12-07T04:54:14;13.80;;;9.83;;
8104;SDS011;4095;48.942;9.104;2022-12-07T04:56:40;13.57;;;10.80;;
8104;SDS011;4095;48.942;9.104;2022-12-07T04:59:07;11.50;;;9.87;;
8104;SDS011;4095;48.942;9.104;2022-12-07T05:01:33;11.47;;;10.27;;
8104;SDS011;4095;48.942;9.104;2022-12-07T05:03:59;11.10;;;9.37;;
8104;SDS011;4095;48.942;9.104;2022-12-07T05:06:24;12.40;;;9.63;;
8104;SDS011;4095;48.942;9.104;2022-12-07T05:08:50;10.93;;;9.80;;
8104;SDS011;4095;48.942;9.104;2022-12-07T05:11:16;13.90;;;10.63;;
8104;SDS011;4095;48.942;9.104;2022-12-07T05:14:01;13.97;;;10.30;;
8104;SDS011;4095;48.942;9.104;2022-12-07T05:16:28;13.03;;;10.20;;
8104;SDS011;4095;48.942;9.104;2022-12-07T05:18:54;11.97;;;9.93;;
8104;SDS011;4095;48.942;9.104;2022-12-07T05:21:20;13.67;;;11.27;;
8104;SDS011;4095;48.942;9.104;2022-12-07T05:23:45;11.53;;;10.33;;
8104;SDS011;4095;48.942;9.104;2022-12-07T05:26:11;11.63;;;10.43;;
8104;SDS011;4095;48.942;9.104;2022-12-07T05:28:36;13.67;;;10.20;;
8104;SDS011;4095;48.942;9.104;2022-12-07T05:31:02;12.03;;;10.60;;
8104;SDS011;4095;48.942;9.104;2022-12-07T05:33:28;12.70;;;10.00;;
8104;SDS011;4095;48.942;9.104;2022-12-07T05:35:53;12.20;;;10.23;;
8104;SDS011;4095;48.942;9.104;2022-12-07T05:38:19;12.37;;;10.90;;
8104;SDS011;4095;48.942;9.104;2022-12-07T05:40:44;11.77;;;10.57;;
8104;SDS011;4095;48.942;9.104;2022-12-07T05:43:10;12.00;;;10.73;;
8104;SDS011;4095;48.942;9.104;2022-12-07T05:45:36;13.07;;;10.73;;
8104;SDS011;4095;48.942;9.104;2022-12-07T05:48:01;11.87;;;10.07;;
8104;SDS011;4095;48.942;9.104;2022-12-07T05:50:27;17.93;;;12.27;;
8104;SDS011;4095;48.942;9.104;2022-12-07T05:52:53;15.60;;;11.33;;
8104;SDS011;4095;48.942;9.104;2022-12-07T05:55:18;14.83;;;12.07;;
8104;SDS011;4095;48.942;9.104;2022-12-07T05:57:44;12.67;;;10.43;;
8104;SDS011;4095;48.942;9.104;2022-12-07T06:00:29;12.00;;;10.50;;
8104;SDS011;4095;48.942;9.104;2022-12-07T06:02:55;12.80;;;10.70;;
8104;SDS011;4095;48.942;9.104;2022-12-07T06:05:20;12.37;;;10.13;;
8104;SDS011;4095;48.942;9.104;2022-12-07T06:07:46;12.20;;;9.77;;
8104;SDS011;4095;48.942;9.104;2022-12-07T06:10:12;13.83;;;10.70;;
8104;SDS011;4095;48.942;9.104;2022-12-07T06:12:37;13.70;;;10.57;;
8104;SDS011;4095;48.942;9.104;2022-12-07T06:15:04;14.47;;;11.20;;
8104;SDS011;4095;48.942;9.104;2022-12-07T06:17:30;11.97;;;10.67;;
8104;SDS011;4095;48.942;9.104;2022-12-07T06:19:56;13.53;;;10.90;;
8104;SDS011;4095;48.942;9.104;2022-12-07T06:22:22;13.33;;;10.43;;
8104;SDS011;4095;48.942;9.104;2022-12-07T06:24:47;12.60;;;10.47;;
8104;SDS011;4095;48.942;9.104;2022-12-07T06:27:13;13.73;;;10.77;;
8104;SDS011;4095;48.942;9.104;2022-12-07T06:29:39;15.70;;;11.87;;
8104;SDS011;4095;48.942;9.104;2022-12-07T06:32:04;12.90;;;10.97;;
8104;SDS011;4095;48.942;9.104;2022-12-07T06:34:30;12.47;;;10.83;;
8104;SDS011;4095;48.942;9.104;2022-12-07T06:36:55;13.73;;;10.87;;
8104;SDS011;4095;48.942;9.104;2022-12-07T06:39:22;26.63;;;17.70;;
8104;SDS011;4095;48.942;9.104;2022-12-07T06:41:51;25.67;;;18.10;;
8104;SDS011;4095;48.942;9.104;2022-12-07T06:44:17;20.90;;;15.07;;
8104;SDS011;4095;48.942;9.104;2022-12-07T06:46:43;16.87;;;12.43;;
8104;SDS011;4095;48.942;9.104;2022-12-07T06:49:09;15.50;;;12.13;;
8104;SDS011;4095;48.942;9.104;2022-12-07T06:51:35;14.80;;;11.63;;
8104;SDS011;4095;48.942;9.104;2022-12-07T06:54:02;13.97;;;11.00;;
8104;SDS011;4095;48.942;9.104;2022-12-07T06:56:28;15.70;;;11.30;;
8104;SDS011;4095;48.942;9.104;2022-12-07T06:58:54;12.07;;;10.40;;
8104;SDS011;4095;48.942;9.104;2022-12-07T07:01:20;12.33;;;10.77;;
8104;SDS011;4095;48.942;9.104;2022-12-07T07:03:46;13.97;;;10.43;;
8104;SDS011;4095;48.942;9.104;2022-12-07T07:06:12;16.00;;;12.00;;
8104;SDS011;4095;48.942;9.104;2022-12-07T07:08:38;16.13;;;12.30;;
8104;SDS011;4095;48.942;9.104;2022-12-07T07:11:04;15.07;;;11.47;;
8104;SDS011;4095;48.942;9.104;2022-12-07T07:13:31;13.10;;;10.20;;
8104;SDS011;4095;48.942;9.104;2022-12-07T07:15:57;12.43;;;10.33;;
8104;SDS011;4095;48.942;9.104;2022-12-07T07:18:23;12.13;;;10.33;;
8104;SDS011;4095;48.942;9.104;2022-12-07T07:20:49;11.97;;;9.70;;
8104;SDS011;4095;48.942;9.104;2022-12-07T07:23:16;11.90;;;9.53;;
8104;SDS011;4095;48.942;9.104;2022-12-07T07:25:42;13.90;;;10.23;;
8104;SDS011;4095;48.942;9.104;2022-12-07T07:28:07;11.63;;;10.27;;
8104;SDS011;4095;48.942;9.104;2022-12-07T07:30:33;12.80;;;10.67;;
8104;SDS011;4095;48.942;9.104;2022-12-07T07:32:59;12.60;;;10.40;;
8104;SDS011;4095;48.942;9.104;2022-12-07T07:35:26;13.37;;;10.30;;
8104;SDS011;4095;48.942;9.104;2022-12-07T07:37:52;14.50;;;11.70;;
8104;SDS011;4095;48.942;9.104;2022-12-07T07:40:18;15.07;;;12.50;;
8104;SDS011;4095;48.942;9.104;2022-12-07T07:42:43;15.73;;;12.30;;
8104;SDS011;4095;48.942;9.104;2022-12-07T07:45:11;18.43;;;12.90;;
8104;SDS011;4095;48.942;9.104;2022-12-07T07:47:37;15.70;;;12.83;;
8104;SDS011;4095;48.942;9.104;2022-12-07T07:50:02;16.23;;;12.40;;
8104;SDS011;4095;48.942;9.104;2022-12-07T07:52:28;14.10;;;10.80;;
8104;SDS011;4095;48.942;9.104;2022-12-07T07:54:53;13.50;;;11.17;;
8104;SDS011;4095;48.942;9.104;2022-12-07T07:57:19;14.83;;;11.53;;
8104;SDS011;4095;48.942;9.104;2022-12-07T07:59:44;15.87;;;12.00;;
8104;SDS011;4095;48.942;9.104;2022-12-07T08:02:14;16.00;;;12.53;;
8104;SDS011;4095;48.942;9.104;2022-12-07T08:04:41;12.27;;;9.97;;
8104;SDS011;4095;48.942;9.104;2022-12-07T08:07:07;12.60;;;10.80;;
8104;SDS011;4095;48.942;9.104;2022-12-07T08:09:32;14.03;;;11.60;;
8104;SDS011;4095;48.942;9.104;2022-12-07T08:11:58;11.70;;;10.50;;
8104;SDS011;4095;48.942;9.104;2022-12-07T08:14:24;12.13;;;10.47;;
8104;SDS011;4095;48.942;9.104;2022-12-07T08:16:50;12.90;;;9.90;;
8104;SDS011;4095;48.942;9.104;2022-12-07T08:19:16;12.37;;;10.17;;
8104;SDS011;4095;48.942;9.104;2022-12-07T08:21:41;10.67;;;9.40;;
8104;SDS011;4095;48.942;9.104;2022-12-07T08:24:07;12.23;;;10.37;;
8104;SDS011;4095;48.942;9.104;2022-12-07T08:26:33;12.00;;;10.20;;
8104;SDS011;4095;48.942;9.104;2022-12-07T08:28:58;12.17;;;8.80;;
8104;SDS011;4095;48.942;9.104;2022-12-07T08:31:24;11.73;;;8.17;;
8104;SDS011;4095;48.942;9.104;2022-12-07T08:33:50;9.67;;;8.00;;
8104;SDS011;4095;48.942;9.104;2022-12-07T08:36:15;8.93;;;7.77;;
8104;SDS011;4095;48.942;9.104;2022-12-07T08:38:41;8.50;;;7.57;;
8104;SDS011;4095;48.942;9.104;2022-12-07T08:41:07;8.13;;;6.70;;
8104;SDS011;4095;48.942;9.104;2022-12-07T08:43:34;9.03;;;6.83;;
8104;SDS011;4095;48.942;9.104;2022-12-07T08:46:08;8.13;;;7.20;;
8104;SDS011;4095;48.942;9.104;2022-12-07T08:48:58;7.77;;;6.83;;
8104;SDS011;4095;48.942;9.104;2022-12-07T08:51:35;7.73;;;6.17;;
8104;SDS011;4095;48.942;9.104;2022-12-07T08:54:01;7.07;;;6.27;;
8104;SDS011;4095;48.942;9.104;2022-12-07T08:56:30;6.80;;;5.73;;
8104;SDS011;4095;48.942;9.104;2022-12-07T08:58:56;7.07;;;6.20;;
8104;SDS011;4095;48.942;9.104;2022-12-07T09:01:22;7.30;;;6.20;;
8104;SDS011;4095;48.942;9.104;2022-12-07T09:03:48;6.67;;;5.97;;
8104;SDS011;4095;48.942;9.104;2022-12-07T09:06:13;7.20;;;5.53;;
8104;SDS011;4095;48.942;9.104;2022-12-07T09:08:41;6.07;;;5.30;;
8104;SDS011;4095;48.942;9.104;2022-12-07T09:11:10;7.47;;;5.80;;
8104;SDS011;4095;48.942;9.104;2022-12-07T09:13:36;7.27;;;5.87;;
8104;SDS011;4095;48.942;9.104;2022-12-07T09:16:02;6.73;;;5.57;;
8104;SDS011;4095;48.942;9.104;2022-12-07T09:18:27;6.90;;;6.00;;
8104;SDS011;4095;48.942;9.104;2022-12-07T09:20:53;7.37;;;6.10;;
8104;SDS011;4095;48.942;9.104;2022-12-07T09:23:18;8.60;;;6.33;;
8104;SDS011;4095;48.942;9.104;2022-12-07T09:25:44;7.83;;;6.40;;
8104;SDS011;4095;48.942;9.104;2022-12-07T09:28:09;7.67;;;6.87;;
8104;SDS011;4095;48.942;9.104;2022-12-07T09:30:35;8.00;;;6.00;;
8104;SDS011;4095;48.942;9.104;2022-12-07T09:33:00;9.33;;;6.23;;
8104;SDS011;4095;48.942;9.104;2022-12-07T09:35:26;7.63;;;6.63;;
8104;SDS011;4095;48.942;9.104;2022-12-07T09:37:52;9.50;;;7.20;;
8104;SDS011;4095;48.942;9.104;2022-12-07T09:40:20;10.00;;;7.97;;
8104;SDS011;4095;48.942;9.104;2022-12-07T09:42:48;10.60;;;6.97;;
8104;SDS011;4095;48.942;9.104;2022-12-07T09:45:19;9.30;;;6.93;;
8104;SDS011;4095;48.942;9.104;2022-12-07T09:47:55;8.30;;;7.30;;
8104;SDS011;4095;48.942;9.104;2022-12-07T09:50:26;8.67;;;7.50;;
8104;SDS011;4095;48.942;9.104;2022-12-07T09:52:53;9.23;;;6.53;;
8104;SDS011;4095;48.942;9.104;2022-12-07T09:55:29;8.13;;;6.90;;
8104;SDS011;4095;48.942;9.104;2022-12-07T09:57:56;8.83;;;6.60;;
8104;SDS011;4095;48.942;9.104;2022-12-07T10:00:23;7.60;;;6.80;;
8104;SDS011;4095;48.942;9.104;2022-12-07T10:02:57;6.50;;;5.50;;
8104;SDS011;4095;48.942;9.104;2022-12-07T10:05:38;10.50;;;5.87;;
8104;SDS011;4095;48.942;9.104;2022-12-07T10:08:07;6.00;;;5.40;;
8104;SDS011;4095;48.942;9.104;2022-12-07T10:10:37;6.43;;;5.07;;
8104;SDS011;4095;48.942;9.104;2022-12-07T10:13:06;7.50;;;4.90;;
8104;SDS011;4095;48.942;9.104;2022-12-07T10:18:36;6.77;;;5.60;;
8104;SDS011;4095;48.942;9.104;2022-12-07T10:23:58;6.03;;;5.23;;
8104;SDS011;4095;48.942;9.104;2022-12-07T10:26:50;7.17;;;5.27;;
8104;SDS011;4095;48.942;9.104;2022-12-07T10:29:19;5.40;;;4.90;;
8104;SDS011;4095;48.942;9.104;2022-12-07T10:35:15;9.27;;;6.40;;
8104;SDS011;4095;48.942;9.104;2022-12-07T10:37:50;9.07;;;6.73;;
8104;SDS011;4095;48.942;9.104;2022-12-07T10:43:04;9.40;;;6.93;;
8104;SDS011;4095;48.942;9.104;2022-12-07T10:45:55;8.63;;;6.83;;
8104;SDS011;4095;48.942;9.104;2022-12-07T10:49:04;8.03;;;6.80;;
8104;SDS011;4095;48.942;9.104;2022-12-07T10:58:04;7.20;;;6.47;;
8104;SDS011;4095;48.942;9.104;2022-12-07T11:06:10;9.17;;;7.47;;
8104;SDS011;4095;48.942;9.104;2022-12-07T11:11:54;8.00;;;7.17;;
8104;SDS011;4095;48.942;9.104;2022-12-07T11:14:51;8.97;;;7.80;;
8104;SDS011;4095;48.942;9.104;2022-12-07T11:23:11;9.73;;;7.33;;
8104;SDS011;4095;48.942;9.104;2022-12-07T11:31:09;10.87;;;8.20;;
8104;SDS011;4095;48.942;9.104;2022-12-07T11:33:53;9.27;;;7.53;;
8104;SDS011;4095;48.942;9.104;2022-12-07T11:38:57;9.73;;;7.67;;
8104;SDS011;4095;48.942;9.104;2022-12-07T11:41:31;10.87;;;7.07;;
8104;SDS011;4095;48.942;9.104;2022-12-07T11:46:36;9.13;;;7.47;;
8104;SDS011;4095;48.942;9.104;2022-12-07T11:52:18;10.50;;;8.73;;
8104;SDS011;4095;48.942;9.104;2022-12-07T11:55:05;11.43;;;8.90;;
8104;SDS011;4095;48.942;9.104;2022-12-07T11:57:45;10.47;;;7.87;;
8104;SDS011;4095;48.942;9.104;2022-12-07T12:00:15;11.07;;;7.80;;
8104;SDS011;4095;48.942;9.104;2022-12-07T12:05:29;9.70;;;8.43;;
8104;SDS011;4095;48.942;9.104;2022-12-07T12:08:11;10.47;;;7.63;;
8104;SDS011;4095;48.942;9.104;2022-12-07T12:11:08;9.27;;;7.97;;
8104;SDS011;4095;48.942;9.104;2022-12-07T12:16:41;9.70;;;8.57;;
8104;SDS011;4095;48.942;9.104;2022-12-07T12:22:05;9.17;;;8.17;;
8104;SDS011;4095;48.942;9.104;2022-12-07T12:24:41;9.63;;;8.10;;
8104;SDS011;4095;48.942;9.104;2022-12-07T12:27:15;8.97;;;7.87;;
8104;SDS011;4095;48.942;9.104;2022-12-07T12:29:50;9.60;;;8.07;;
8104;SDS011;4095;48.942;9.104;2022-12-07T12:32:23;9.43;;;7.70;;
8104;SDS011;4095;48.942;9.104;2022-12-07T12:37:51;9.60;;;7.87;;
8104;SDS011;4095;48.942;9.104;2022-12-07T12:42:56;11.17;;;9.33;;
8104;SDS011;4095;48.942;9.104;2022-12-07T12:45:29;11.77;;;9.97;;
8104;SDS011;4095;48.942;9.104;2022-12-07T12:50:43;11.20;;;9.87;;
8104;SDS011;4095;48.942;9.104;2022-12-07T12:53:24;11.33;;;9.47;;
8104;SDS011;4095;48.942;9.104;2022-12-07T12:56:02;10.80;;;9.30;;
8104;SDS011;4095;48.942;9.104;2022-12-07T12:59:17;12.03;;;10.20;;
8104;SDS011;4095;48.942;9.104;2022-12-07T13:01:48;11.40;;;9.60;;
8104;SDS011;4095;48.942;9.104;2022-12-07T13:04:30;12.83;;;10.63;;
8104;SDS011;4095;48.942;9.104;2022-12-07T13:23:33;13.90;;;11.10;;
8104;SDS011;4095;48.942;9.104;2022-12-07T13:28:37;14.50;;;11.03;;
8104;SDS011;4095;48.942;9.104;2022-12-07T13:31:19;13.13;;;10.53;;
8104;SDS011;4095;48.942;9.104;2022-12-07T13:33:48;14.67;;;11.53;;
8104;SDS011;4095;48.942;9.104;2022-12-07T13:36:23;13.33;;;11.13;;
8104;SDS011;4095;48.942;9.104;2022-12-07T13:38:57;14.33;;;11.03;;
8104;SDS011;4095;48.942;9.104;2022-12-07T13:41:28;15.33;;;11.43;;
8104;SDS011;4095;48.942;9.104;2022-12-07T13:49:19;13.33;;;10.80;;
8104;SDS011;4095;48.942;9.104;2022-12-07T13:51:46;12.97;;;10.07;;
8104;SDS011;4095;48.942;9.104;2022-12-07T13:54:12;12.70;;;10.67;;
8104;SDS011;4095;48.942;9.104;2022-12-07T13:56:39;15.20;;;11.57;;
8104;SDS011;4095;48.942;9.104;2022-12-07T13:59:26;12.00;;;10.70;;
8104;SDS011;4095;48.942;9.104;2022-12-07T14:01:51;13.57;;;10.73;;
8104;SDS011;4095;48.942;9.104;2022-12-07T14:04:19;14.47;;;11.17;;
8104;SDS011;4095;48.942;9.104;2022-12-07T14:06:56;14.07;;;10.80;;
8104;SDS011;4095;48.942;9.104;2022-12-07T14:09:23;13.13;;;10.30;;
8104;SDS011;4095;48.942;9.104;2022-12-07T14:11:50;12.93;;;10.57;;
8104;SDS011;4095;48.942;9.104;2022-12-07T14:14:20;13.70;;;10.20;;
8104;SDS011;4095;48.942;9.104;2022-12-07T14:16:55;12.73;;;10.30;;
8104;SDS011;4095;48.942;9.104;2022-12-07T14:19:40;12.73;;;11.30;;
8104;SDS011;4095;48.942;9.104;2022-12-07T14:22:33;13.87;;;11.17;;
8104;SDS011;4095;48.942;9.104;2022-12-07T14:25:01;15.33;;;11.40;;
8104;SDS011;4095;48.942;9.104;2022-12-07T14:27:47;13.63;;;11.03;;
8104;SDS011;4095;48.942;9.104;2022-12-07T14:30:20;13.33;;;11.20;;
8104;SDS011;4095;48.942;9.104;2022-12-07T14:32:47;12.97;;;10.80;;
8104;SDS011;4095;48.942;9.104;2022-12-07T14:35:16;13.10;;;11.00;;
8104;SDS011;4095;48.942;9.104;2022-12-07T14:37:43;13.43;;;10.93;;
8104;SDS011;4095;48.942;9.104;2022-12-07T14:40:15;14.87;;;11.20;;
8104;SDS011;4095;48.942;9.104;2022-12-07T14:43:00;14.63;;;10.83;;
8104;SDS011;4095;48.942;9.104;2022-12-07T14:45:27;14.80;;;11.73;;
8104;SDS011;4095;48.942;9.104;2022-12-07T14:47:52;14.47;;;11.43;;
8104;SDS011;4095;48.942;9.104;2022-12-07T14:50:18;14.63;;;11.27;;
8104;SDS011;4095;48.942;9.104;2022-12-07T14:52:49;14.67;;;11.63;;
8104;SDS011;4095;48.942;9.104;2022-12-07T14:55:29;14.53;;;11.43;;
8104;SDS011;4095;48.942;9.104;2022-12-07T14:57:56;15.57;;;11.80;;
8104;SDS011;4095;48.942;9.104;2022-12-07T15:00:24;15.93;;;12.60;;
8104;SDS011;4095;48.942;9.104;2022-12-07T15:02:51;17.43;;;13.13;;
8104;SDS011;4095;48.942;9.104;2022-12-07T15:05:17;17.53;;;13.60;;
8104;SDS011;4095;48.942;9.104;2022-12-07T15:07:43;18.77;;;14.83;;
8104;SDS011;4095;48.942;9.104;2022-12-07T15:10:14;18.50;;;14.30;;
8104;SDS011;4095;48.942;9.104;2022-12-07T15:12:45;19.60;;;15.20;;
8104;SDS011;4095;48.942;9.104;2022-12-07T15:15:11;19.20;;;14.77;;
8104;SDS011;4095;48.942;9.104;2022-12-07T15:17:37;18.37;;;15.07;;
8104;SDS011;4095;48.942;9.104;2022-12-07T15:20:03;20.57;;;15.17;;
8104;SDS011;4095;48.942;9.104;2022-12-07T15:22:29;18.40;;;14.90;;
8104;SDS011;4095;48.942;9.104;2022-12-07T15:24:56;19.50;;;15.23;;
8104;SDS011;4095;48.942;9.104;2022-12-07T15:27:22;17.77;;;14.27;;
8104;SDS011;4095;48.942;9.104;2022-12-07T15:29:47;18.73;;;14.47;;
8104;SDS011;4095;48.942;9.104;2022-12-07T15:32:13;22.17;;;15.50;;
8104;SDS011;4095;48.942;9.104;2022-12-07T15:34:38;19.37;;;15.03;;
8104;SDS011;4095;48.942;9.104;2022-12-07T15:37:04;23.47;;;16.10;;
8104;SDS011;4095;48.942;9.104;2022-12-07T15:39:30;20.93;;;15.60;;
8104;SDS011;4095;48.942;9.104;2022-12-07T15:41:55;19.03;;;14.37;;
8104;SDS011;4095;48.942;9.104;2022-12-07T15:44:21;19.43;;;15.47;;
8104;SDS011;4095;48.942;9.104;2022-12-07T15:47:05;17.57;;;14.20;;
8104;SDS011;4095;48.942;9.104;2022-12-07T15:49:31;19.90;;;14.60;;
8104;SDS011;4095;48.942;9.104;2022-12-07T15:51:56;19.13;;;14.63;;
8104;SDS011;4095;48.942;9.104;2022-12-07T15:54:23;20.07;;;15.13;;
8104;SDS011;4095;48.942;9.104;2022-12-07T15:56:50;16.27;;;13.07;;
8104;SDS011;4095;48.942;9.104;2022-12-07T15:59:16;18.60;;;13.83;;
8104;SDS011;4095;48.942;9.104;2022-12-07T16:01:42;16.17;;;12.57;;
8104;SDS011;4095;48.942;9.104;2022-12-07T16:04:08;18.03;;;13.17;;
8104;SDS011;4095;48.942;9.104;2022-12-07T16:06:33;18.33;;;13.73;;
8104;SDS011;4095;48.942;9.104;2022-12-07T16:08:59;17.93;;;14.63;;
8104;SDS011;4095;48.942;9.104;2022-12-07T16:11:25;17.40;;;13.87;;
8104;SDS011;4095;48.942;9.104;2022-12-07T16:13:51;18.93;;;13.93;;
8104;SDS011;4095;48.942;9.104;2022-12-07T16:16:17;20.20;;;15.70;;
8104;SDS011;4095;48.942;9.104;2022-12-07T16:18:44;18.53;;;14.67;;
8104;SDS011;4095;48.942;9.104;2022-12-07T16:21:11;19.30;;;14.07;;
8104;SDS011;4095;48.942;9.104;2022-12-07T16:23:37;18.47;;;14.37;;
8104;SDS011;4095;48.942;9.104;2022-12-07T16:26:04;19.27;;;15.33;;
8104;SDS011;4095;48.942;9.104;2022-12-07T16:28:44;17.53;;;14.10;;
8104;SDS011;4095;48.942;9.104;2022-12-07T16:31:14;16.43;;;13.93;;
8104;SDS011;4095;48.942;9.104;2022-12-07T16:33:42;19.60;;;16.23;;
8104;SDS011;4095;48.942;9.104;2022-12-07T16:36:08;20.07;;;15.60;;
8104;SDS011;4095;48.942;9.104;2022-12-07T16:38:35;17.23;;;14.43;;
8104;SDS011;4095;48.942;9.104;2022-12-07T16:41:02;18.20;;;14.87;;
8104;SDS011;4095;48.942;9.104;2022-12-07T16:43:29;24.53;;;17.63;;
8104;SDS011;4095;48.942;9.104;2022-12-07T16:45:55;20.10;;;15.90;;
8104;SDS011;4095;48.942;9.104;2022-12-07T16:48:20;19.80;;;17.63;;
8104;SDS011;4095;48.942;9.104;2022-12-07T16:50:46;23.73;;;17.53;;
8104;SDS011;4095;48.942;9.104;2022-12-07T16:53:12;21.20;;;16.50;;
8104;SDS011;4095;48.942;9.104;2022-12-07T16:55:39;19.97;;;15.93;;
8104;SDS011;4095;48.942;9.104;2022-12-07T16:58:06;24.83;;;18.53;;
8104;SDS011;4095;48.942;9.104;2022-12-07T17:00:32;21.37;;;17.23;;
8104;SDS011;4095;48.942;9.104;2022-12-07T17:02:58;19.93;;;16.20;;
8104;SDS011;4095;48.942;9.104;2022-12-07T17:05:25;19.90;;;17.03;;
8104;SDS011;4095;48.942;9.104;2022-12-07T17:07:53;17.93;;;14.90;;
8104;SDS011;4095;48.942;9.104;2022-12-07T17:10:19;25.03;;;20.40;;
8104;SDS011;4095;48.942;9.104;2022-12-07T17:12:44;24.07;;;19.97;;
8104;SDS011;4095;48.942;9.104;2022-12-07T17:15:10;21.70;;;16.13;;
8104;SDS011;4095;48.942;9.104;2022-12-07T17:17:41;18.90;;;15.23;;
8104;SDS011;4095;48.942;9.104;2022-12-07T17:20:08;18.13;;;14.07;;
8104;SDS011;4095;48.942;9.104;2022-12-07T17:22:34;17.63;;;13.83;;
8104;SDS011;4095;48.942;9.104;2022-12-07T17:24:59;19.27;;;14.53;;
8104;SDS011;4095;48.942;9.104;2022-12-07T17:27:25;22.27;;;15.20;;